createdAt,value
2023-05-08T00:01:52.972Z,39.30
2023-05-08T00:04:25.674Z,38.50
2023-05-08T00:06:54.118Z,46.22
2023-05-08T00:09:25.931Z,44.00
2023-05-08T00:11:55.814Z,40.03
2023-05-08T00:14:24.238Z,40.28
2023-05-08T00:16:53.015Z,34.92
2023-05-08T00:19:26.284Z,38.97
2023-05-08T00:21:55.715Z,46.45
2023-05-08T00:24:25.482Z,44.05
2023-05-08T00:26:55.113Z,33.15
2023-05-08T00:29:25.470Z,42.47
2023-05-08T00:31:56.774Z,35.15
2023-05-08T00:34:24.865Z,47.55
2023-05-08T00:36:52.965Z,40.70
2023-05-08T00:39:21.128Z,43.13
2023-05-08T00:41:49.148Z,32.20
2023-05-08T00:44:22.421Z,37.42
2023-05-08T00:46:53.941Z,31.60
2023-05-08T00:49:27.570Z,46.77
2023-05-08T00:51:57.696Z,48.90
2023-05-08T00:54:29.268Z,28.70
2023-05-08T00:56:59.811Z,30.67
2023-05-08T00:59:29.196Z,38.33
2023-05-08T01:01:57.758Z,36.13
2023-05-08T01:04:26.642Z,49.67
2023-05-08T01:06:56.495Z,30.90
2023-05-08T01:09:24.826Z,35.25
2023-05-08T01:11:57.373Z,42.83
2023-05-08T01:17:03.123Z,40.63
2023-05-08T01:19:58.550Z,57.22
2023-05-08T01:22:40.344Z,36.15
2023-05-08T01:25:41.951Z,38.95
2023-05-08T01:28:33.177Z,45.85
2023-05-08T01:31:06.678Z,42.72
2023-05-08T01:33:40.093Z,52.10
2023-05-08T01:36:17.113Z,50.75
2023-05-08T01:38:52.985Z,45.75
2023-05-08T01:41:28.352Z,44.45
2023-05-08T01:44:03.960Z,45.70
2023-05-08T01:46:34.445Z,53.60
2023-05-08T01:49:10.655Z,33.25
2023-05-08T01:51:56.541Z,35.70
2023-05-08T01:54:29.454Z,50.58
2023-05-08T01:57:00.855Z,42.08
2023-05-08T01:59:35.622Z,38.53
2023-05-08T02:02:05.746Z,39.67
2023-05-08T02:04:36.333Z,41.45
2023-05-08T02:07:09.544Z,34.78
2023-05-08T02:09:39.627Z,32.35
2023-05-08T02:12:09.823Z,42.50
2023-05-08T02:14:39.722Z,35.38
2023-05-08T02:17:12.149Z,49.30
2023-05-08T02:19:43.730Z,29.77
2023-05-08T02:22:13.825Z,40.90
2023-05-08T02:24:46.303Z,32.40
2023-05-08T02:27:15.015Z,41.90
2023-05-08T02:29:43.766Z,42.88
2023-05-08T02:32:13.637Z,43.90
2023-05-08T02:34:51.408Z,49.58
2023-05-08T02:37:31.613Z,44.10
2023-05-08T02:40:03.679Z,50.13
2023-05-08T02:42:33.243Z,43.08
2023-05-08T02:45:02.408Z,58.38
2023-05-08T02:47:39.347Z,46.08
2023-05-08T02:50:25.272Z,53.67
2023-05-08T02:52:57.304Z,42.60
2023-05-08T02:55:35.424Z,33.50
2023-05-08T02:58:12.531Z,32.45
2023-05-08T03:00:48.599Z,33.20
2023-05-08T03:03:22.796Z,32.03
2023-05-08T03:05:56.109Z,44.47
2023-05-08T03:08:28.987Z,48.35
2023-05-08T03:10:59.731Z,44.40
2023-05-08T03:13:30.856Z,44.65
2023-05-08T03:16:01.946Z,31.13
2023-05-08T03:18:34.965Z,37.13
2023-05-08T03:21:07.653Z,58.72
2023-05-08T03:23:37.389Z,31.03
2023-05-08T03:26:06.471Z,48.22
2023-05-08T03:28:37.753Z,65.22
2023-05-08T03:31:07.294Z,42.60
2023-05-08T03:33:37.701Z,38.22
2023-05-08T03:36:08.089Z,39.88
2023-05-08T03:38:39.620Z,42.95
2023-05-08T03:41:09.159Z,31.60
2023-05-08T03:43:38.921Z,32.05
2023-05-08T03:46:08.010Z,38.30
2023-05-08T03:48:37.302Z,36.20
2023-05-08T03:51:07.701Z,34.75
2023-05-08T03:53:38.937Z,45.95
2023-05-08T03:56:07.543Z,36.00
2023-05-08T03:58:40.030Z,44.85
2023-05-08T04:01:12.033Z,46.13
2023-05-08T04:04:01.222Z,32.70
2023-05-08T04:06:48.687Z,39.80
2023-05-08T04:09:26.032Z,39.53
2023-05-08T04:12:03.263Z,47.30
2023-05-08T04:14:49.633Z,33.20
2023-05-08T04:17:24.894Z,39.75
2023-05-08T04:20:00.035Z,50.90
2023-05-08T04:22:31.748Z,35.05
2023-05-08T04:25:02.802Z,38.90
2023-05-08T04:27:31.772Z,38.55
2023-05-08T04:30:00.252Z,35.15
2023-05-08T04:32:30.155Z,41.20
2023-05-08T04:34:58.488Z,54.28
2023-05-08T04:37:28.547Z,36.78
2023-05-08T04:42:36.729Z,31.08
2023-05-08T04:47:35.550Z,34.17
2023-05-08T04:50:04.733Z,40.30
2023-05-08T04:52:34.562Z,47.58
2023-05-08T04:55:05.236Z,32.83
2023-05-08T04:57:36.511Z,30.95
2023-05-08T05:00:06.371Z,46.67
2023-05-08T05:02:42.359Z,37.45
2023-05-08T05:05:11.442Z,31.45
2023-05-08T05:07:43.162Z,42.78
2023-05-08T05:12:42.838Z,39.30
2023-05-08T05:15:11.924Z,32.60
2023-05-08T05:17:41.323Z,30.88
2023-05-08T05:20:12.148Z,30.35
2023-05-08T05:22:40.782Z,34.53
2023-05-08T05:25:10.574Z,36.80
2023-05-08T05:27:41.032Z,47.92
2023-05-08T05:30:12.535Z,28.05
2023-05-08T05:32:40.782Z,30.00
2023-05-08T05:35:12.407Z,29.42
2023-05-08T05:37:59.596Z,43.30
2023-05-08T05:40:28.020Z,42.22
2023-05-08T05:42:57.862Z,40.20
2023-05-08T05:45:27.365Z,41.67
2023-05-08T05:47:55.750Z,46.47
2023-05-08T05:50:27.189Z,45.13
2023-05-08T05:52:57.468Z,43.63
2023-05-08T05:55:26.979Z,39.22
2023-05-08T05:57:57.376Z,42.13
2023-05-08T06:00:27.753Z,34.38
2023-05-08T06:02:59.315Z,40.35
2023-05-08T06:05:28.773Z,39.47
2023-05-08T06:07:57.215Z,36.40
2023-05-08T06:10:27.861Z,41.20
2023-05-08T06:12:57.461Z,42.08
2023-05-08T06:15:26.034Z,43.67
2023-05-08T06:17:55.430Z,39.60
2023-05-08T06:20:26.284Z,44.85
2023-05-08T06:22:54.657Z,40.65
2023-05-08T06:25:24.206Z,40.25
2023-05-08T06:27:55.735Z,43.70
2023-05-08T06:30:31.773Z,41.50
2023-05-08T06:33:00.444Z,48.03
2023-05-08T06:35:28.777Z,42.97
2023-05-08T06:37:57.264Z,50.15
2023-05-08T06:40:27.709Z,42.78
2023-05-08T06:42:57.732Z,45.40
2023-05-08T06:45:27.672Z,38.78
2023-05-08T06:47:55.864Z,38.33
2023-05-08T06:50:26.012Z,40.60
2023-05-08T06:52:54.225Z,40.47
2023-05-08T06:55:22.477Z,37.03
2023-05-08T06:57:51.857Z,42.65
2023-05-08T07:00:20.313Z,35.97
2023-05-08T07:02:49.848Z,41.25
2023-05-08T07:05:20.435Z,41.90
2023-05-08T07:07:50.048Z,41.55
2023-05-08T07:10:21.060Z,39.75
2023-05-08T07:12:50.815Z,36.65
2023-05-08T07:15:25.949Z,39.42
2023-05-08T07:17:55.617Z,38.72
2023-05-08T07:20:25.527Z,37.55
2023-05-08T07:22:54.130Z,44.80
2023-05-08T07:25:30.050Z,39.00
2023-05-08T07:28:00.490Z,42.25
2023-05-08T07:30:32.129Z,36.53
2023-05-08T07:33:01.950Z,40.90
2023-05-08T07:35:30.414Z,45.88
2023-05-08T07:37:59.388Z,48.97
2023-05-08T07:40:28.162Z,43.97
2023-05-08T07:42:57.846Z,46.78
2023-05-08T07:45:26.432Z,43.90
2023-05-08T07:47:57.365Z,41.67
2023-05-08T07:50:29.522Z,46.47
2023-05-08T07:52:59.844Z,44.95
2023-05-08T07:55:28.136Z,42.67
2023-05-08T07:57:59.104Z,49.40
2023-05-08T08:00:29.641Z,48.03
2023-05-08T08:03:00.305Z,44.60
2023-05-08T08:05:34.145Z,44.63
2023-05-08T08:08:02.729Z,38.08
2023-05-08T08:10:31.586Z,46.22
2023-05-08T08:13:01.531Z,45.20
2023-05-08T08:15:31.490Z,41.75
2023-05-08T08:18:00.070Z,41.25
2023-05-08T08:20:31.153Z,39.55
2023-05-08T08:22:59.175Z,41.35
2023-05-08T08:25:27.818Z,40.10
2023-05-08T08:27:56.066Z,41.13
2023-05-08T08:30:24.999Z,43.25
2023-05-08T08:32:53.664Z,38.72
2023-05-08T08:35:26.473Z,33.47
2023-05-08T08:37:59.936Z,32.35
2023-05-08T08:40:28.344Z,33.35
2023-05-08T08:42:58.882Z,28.80
2023-05-08T08:45:27.053Z,32.50
2023-05-08T08:47:56.201Z,46.15
2023-05-08T08:50:27.445Z,28.65
2023-05-08T08:53:05.258Z,29.52
2023-05-08T08:55:36.944Z,34.60
2023-05-08T08:58:14.007Z,36.00
2023-05-08T09:00:45.103Z,35.65
2023-05-08T09:03:15.460Z,31.35
2023-05-08T09:05:45.150Z,28.58
2023-05-08T09:08:14.614Z,28.63
2023-05-08T09:10:43.202Z,31.35
2023-05-08T09:13:11.729Z,28.33
2023-05-08T09:15:40.937Z,25.52
2023-05-08T09:18:09.362Z,25.48
2023-05-08T09:20:38.210Z,23.83
2023-05-08T09:23:07.856Z,21.52
2023-05-08T09:25:47.517Z,26.90
2023-05-08T09:28:20.035Z,34.58
2023-05-08T09:30:57.310Z,33.30
2023-05-08T09:33:26.469Z,35.08
2023-05-08T09:35:54.963Z,31.48
2023-05-08T09:38:34.953Z,29.35
2023-05-08T09:41:15.410Z,31.95
2023-05-08T09:43:45.047Z,32.58
2023-05-08T09:46:24.642Z,34.42
2023-05-08T09:48:58.630Z,31.63
2023-05-08T09:51:28.098Z,29.73
2023-05-08T09:53:57.345Z,29.25
2023-05-08T09:56:34.731Z,28.98
2023-05-08T09:59:06.257Z,29.83
2023-05-08T10:01:36.476Z,33.87
2023-05-08T10:04:06.136Z,31.08
2023-05-08T10:06:36.345Z,31.10
2023-05-08T10:09:12.602Z,31.42
2023-05-08T10:11:43.685Z,29.02
2023-05-08T10:14:13.170Z,27.08
2023-05-08T10:16:53.415Z,30.63
2023-05-08T10:19:24.528Z,29.17
2023-05-08T10:22:01.570Z,30.35
2023-05-08T10:24:36.545Z,29.92
2023-05-08T10:27:13.464Z,28.08
2023-05-08T10:29:43.952Z,29.27
2023-05-08T10:32:16.964Z,31.02
2023-05-08T10:34:47.345Z,29.65
2023-05-08T10:37:15.703Z,31.55
2023-05-08T10:39:44.846Z,35.50
2023-05-08T10:42:18.346Z,32.33
2023-05-08T10:44:49.501Z,28.40
2023-05-08T10:47:20.870Z,29.70
2023-05-08T10:49:54.366Z,28.33
2023-05-08T10:52:29.380Z,24.05
2023-05-08T10:55:24.062Z,23.42
2023-05-08T10:58:08.135Z,20.90
2023-05-08T11:01:16.306Z,23.15
2023-05-08T11:03:50.940Z,25.05
2023-05-08T11:06:21.216Z,20.73
2023-05-08T11:08:54.428Z,20.02
2023-05-08T11:11:27.100Z,18.83
2023-05-08T11:14:01.133Z,18.27
2023-05-08T11:17:04.118Z,17.23
2023-05-08T11:19:32.223Z,17.73
2023-05-08T11:22:25.987Z,14.07
2023-05-08T11:25:02.186Z,15.45
2023-05-08T11:27:38.908Z,17.00
2023-05-08T11:30:39.861Z,16.55
2023-05-08T11:33:15.571Z,23.75
2023-05-08T11:35:48.127Z,21.08
2023-05-08T11:38:17.905Z,19.95
2023-05-08T11:40:48.258Z,18.77
2023-05-08T11:43:50.786Z,17.48
2023-05-08T11:46:22.944Z,19.65
2023-05-08T11:49:01.294Z,17.30
2023-05-08T11:51:32.982Z,18.70
2023-05-08T11:54:01.446Z,15.90
2023-05-08T11:56:31.916Z,19.05
2023-05-08T11:59:05.443Z,17.38
2023-05-08T12:01:34.791Z,18.02
2023-05-08T12:04:07.741Z,18.63
2023-05-08T12:06:38.462Z,17.02
2023-05-08T12:09:12.345Z,15.35
2023-05-08T12:11:41.301Z,16.73
2023-05-08T12:14:13.049Z,15.82
2023-05-08T12:16:42.628Z,15.07
2023-05-08T12:19:13.133Z,16.45
2023-05-08T12:21:42.103Z,17.95
2023-05-08T12:24:12.851Z,19.85
2023-05-08T12:26:42.372Z,17.48
2023-05-08T12:29:10.465Z,23.35
2023-05-08T12:31:40.051Z,23.48
2023-05-08T12:34:10.275Z,26.23
2023-05-08T12:36:39.463Z,25.02
2023-05-08T12:39:13.372Z,34.08
2023-05-08T12:41:48.788Z,32.78
2023-05-08T12:44:24.320Z,29.00
2023-05-08T12:46:53.560Z,27.83
2023-05-08T12:49:28.673Z,31.08
2023-05-08T12:52:07.254Z,32.45
2023-05-08T12:54:36.496Z,34.45
2023-05-08T12:57:11.624Z,30.10
2023-05-08T12:59:39.830Z,28.88
2023-05-08T13:02:14.647Z,27.88
2023-05-08T13:04:44.705Z,30.65
2023-05-08T13:07:13.056Z,28.75
2023-05-08T13:09:41.847Z,28.25
2023-05-08T13:12:10.400Z,28.55
2023-05-08T13:14:39.720Z,35.38
2023-05-08T13:17:09.219Z,29.88
2023-05-08T13:19:37.727Z,27.40
2023-05-08T13:22:07.225Z,24.60
2023-05-08T13:24:36.838Z,24.17
2023-05-08T13:27:09.189Z,22.77
2023-05-08T13:29:37.665Z,19.23
2023-05-08T13:32:06.779Z,18.35
2023-05-08T13:34:37.729Z,18.80
2023-05-08T13:37:11.250Z,21.67
2023-05-08T13:39:41.649Z,18.38
2023-05-08T13:42:11.718Z,23.33
2023-05-08T13:44:40.628Z,20.85
2023-05-08T13:47:10.196Z,23.60
2023-05-08T13:49:38.590Z,24.83
2023-05-08T13:52:06.699Z,23.58
2023-05-08T13:54:37.593Z,24.42
2023-05-08T13:57:06.297Z,22.95
2023-05-08T13:59:34.716Z,22.10
2023-05-08T14:02:03.209Z,23.23
2023-05-08T14:04:31.766Z,23.30
2023-05-08T14:07:01.516Z,19.77
2023-05-08T14:09:29.828Z,18.73
2023-05-08T14:12:00.843Z,18.70
2023-05-08T14:14:29.353Z,20.20
2023-05-08T14:16:58.230Z,18.23
2023-05-08T14:19:26.559Z,15.82
2023-05-08T14:21:55.078Z,14.63
2023-05-08T14:24:23.288Z,14.25
2023-05-08T14:26:53.273Z,17.80
2023-05-08T14:29:23.018Z,12.40
2023-05-08T14:31:51.430Z,13.63
2023-05-08T14:34:19.643Z,13.45
2023-05-08T14:36:49.342Z,12.85
2023-05-08T14:39:17.585Z,13.05
2023-05-08T14:42:05.213Z,13.73
2023-05-08T14:44:36.058Z,11.10
2023-05-08T14:47:10.528Z,13.45
2023-05-08T14:49:39.009Z,13.07
2023-05-08T14:52:07.691Z,9.43
2023-05-08T14:54:35.938Z,11.15
2023-05-08T14:57:07.721Z,11.25
2023-05-08T14:59:49.095Z,9.90
2023-05-08T15:02:22.196Z,11.90
2023-05-08T15:04:51.013Z,11.70
2023-05-08T15:07:19.798Z,13.15
2023-05-08T15:09:48.062Z,9.52
2023-05-08T15:12:17.534Z,9.88
2023-05-08T15:14:47.698Z,10.60
2023-05-08T15:17:16.180Z,10.85
2023-05-08T15:19:46.081Z,9.82
2023-05-08T15:22:16.035Z,8.43
2023-05-08T15:24:47.864Z,9.18
2023-05-08T15:27:16.539Z,7.90
2023-05-08T15:29:46.212Z,8.73
2023-05-08T15:32:15.845Z,8.38
2023-05-08T15:34:45.244Z,7.53
2023-05-08T15:37:14.341Z,9.82
2023-05-08T15:39:43.948Z,8.95
2023-05-08T15:42:13.888Z,6.90
2023-05-08T15:44:54.202Z,8.23
2023-05-08T15:47:27.380Z,23.30
2023-05-08T15:49:56.168Z,8.10
2023-05-08T15:52:25.141Z,9.77
2023-05-08T15:54:53.913Z,7.82
2023-05-08T15:57:23.937Z,7.65
2023-05-08T15:59:52.848Z,6.60
2023-05-08T16:02:21.387Z,7.93
2023-05-08T16:04:51.381Z,9.25
2023-05-08T16:07:20.941Z,7.32
2023-05-08T16:09:50.252Z,10.00
2023-05-08T16:12:19.799Z,8.52
2023-05-08T16:14:53.017Z,5.90
2023-05-08T16:17:22.131Z,7.18
2023-05-08T16:19:52.002Z,8.07
2023-05-08T16:22:23.099Z,6.93
2023-05-08T16:24:55.054Z,5.95
2023-05-08T16:27:29.171Z,6.85
2023-05-08T16:29:58.409Z,6.75
2023-05-08T16:32:27.264Z,9.50
2023-05-08T16:34:57.517Z,8.40
2023-05-08T16:37:26.348Z,5.68
2023-05-08T16:39:56.170Z,8.00
2023-05-08T16:42:24.387Z,7.38
2023-05-08T16:44:52.566Z,6.63
2023-05-08T16:47:21.415Z,7.00
2023-05-08T16:49:51.088Z,7.07
2023-05-08T16:52:21.061Z,5.95
2023-05-08T16:54:50.704Z,8.25
2023-05-08T16:57:22.584Z,8.77
2023-05-08T16:59:53.276Z,6.80
2023-05-08T17:02:22.987Z,7.57
2023-05-08T17:04:57.166Z,7.65
2023-05-08T17:07:27.043Z,10.02
2023-05-08T17:09:58.078Z,10.15
2023-05-08T17:12:26.697Z,7.57
2023-05-08T17:14:55.366Z,6.72
2023-05-08T17:17:24.110Z,9.18
2023-05-08T17:19:53.312Z,8.35
2023-05-08T17:22:21.833Z,7.93
2023-05-08T17:24:51.609Z,9.65
2023-05-08T17:27:20.081Z,9.25
2023-05-08T17:29:52.758Z,9.32
2023-05-08T17:32:22.081Z,10.13
2023-05-08T17:34:51.978Z,8.73
2023-05-08T17:37:21.424Z,8.18
2023-05-08T17:39:51.189Z,9.68
2023-05-08T17:42:19.479Z,8.90
2023-05-08T17:44:47.936Z,10.65
2023-05-08T17:47:16.451Z,11.40
2023-05-08T17:49:44.619Z,10.60
2023-05-08T17:52:14.399Z,9.25
2023-05-08T17:54:45.543Z,9.82
2023-05-08T17:57:15.507Z,9.20
2023-05-08T17:59:43.973Z,9.18
2023-05-08T18:02:15.428Z,8.27
2023-05-08T18:04:44.047Z,10.98
2023-05-08T18:07:13.436Z,8.85
2023-05-08T18:09:43.933Z,11.98
2023-05-08T18:12:13.639Z,9.85
2023-05-08T18:14:44.314Z,9.18
2023-05-08T18:17:15.422Z,11.83
2023-05-08T18:19:44.709Z,11.15
2023-05-08T18:22:13.134Z,9.18
2023-05-08T18:24:42.030Z,10.88
2023-05-08T18:27:11.713Z,9.27
2023-05-08T18:29:40.983Z,9.27
2023-05-08T18:32:11.268Z,9.68
2023-05-08T18:34:41.476Z,9.43
2023-05-08T18:37:09.521Z,8.00
2023-05-08T18:39:38.400Z,9.63
2023-05-08T18:42:06.791Z,9.45
2023-05-08T18:44:35.284Z,11.20
2023-05-08T18:47:05.166Z,10.02
2023-05-08T18:49:35.114Z,10.43
2023-05-08T18:52:04.284Z,11.60
2023-05-08T18:54:35.747Z,12.73
2023-05-08T18:57:04.426Z,8.95
2023-05-08T18:59:32.845Z,9.73
2023-05-08T19:02:02.267Z,8.50
2023-05-08T19:04:30.672Z,9.18
2023-05-08T19:07:00.669Z,10.48
2023-05-08T19:09:29.476Z,8.52
2023-05-08T19:12:00.117Z,11.88
2023-05-08T19:14:28.727Z,12.45
2023-05-08T19:16:58.468Z,10.73
2023-05-08T19:19:27.556Z,8.50
2023-05-08T19:22:07.243Z,12.18
2023-05-08T19:24:35.630Z,10.32
2023-05-08T19:27:04.054Z,9.90
2023-05-08T19:29:34.202Z,10.93
2023-05-08T19:32:04.171Z,11.90
2023-05-08T19:34:37.296Z,10.15
2023-05-08T19:37:08.262Z,9.13
2023-05-08T19:39:36.572Z,12.23
2023-05-08T19:42:05.314Z,11.00
2023-05-08T19:44:34.753Z,9.48
2023-05-08T19:47:04.379Z,9.48
2023-05-08T19:49:33.495Z,13.68
2023-05-08T19:52:01.910Z,10.30
2023-05-08T19:54:31.690Z,12.85
2023-05-08T19:56:59.808Z,11.50
2023-05-08T19:59:28.262Z,10.07
2023-05-08T20:01:56.815Z,12.23
2023-05-08T20:04:26.294Z,10.20
2023-05-08T20:06:55.511Z,11.88
2023-05-08T20:09:23.840Z,11.73
2023-05-08T20:11:55.176Z,12.63
2023-05-08T20:14:23.852Z,12.63
2023-05-08T20:16:51.961Z,11.75
2023-05-08T20:19:20.623Z,11.82
2023-05-08T20:21:49.278Z,14.00
2023-05-08T20:24:18.933Z,13.40
2023-05-08T20:26:47.105Z,11.88
2023-05-08T20:29:23.389Z,12.63
2023-05-08T20:31:53.491Z,11.30
2023-05-08T20:34:22.864Z,13.05
2023-05-08T20:36:52.002Z,11.38
2023-05-08T20:39:19.995Z,13.85
2023-05-08T20:41:48.500Z,12.52
2023-05-08T20:44:20.906Z,15.20
2023-05-08T20:49:18.493Z,14.52
2023-05-08T20:51:52.162Z,15.18
2023-05-08T20:54:23.354Z,13.27
2023-05-08T20:56:54.243Z,13.07
2023-05-08T20:59:25.498Z,12.43
2023-05-08T21:01:54.168Z,13.35
2023-05-08T21:04:22.415Z,11.90
2023-05-08T21:06:59.289Z,13.55
2023-05-08T21:09:30.670Z,19.60
2023-05-08T21:12:00.550Z,14.90
2023-05-08T21:14:31.549Z,13.68
2023-05-08T21:17:00.207Z,17.83
2023-05-08T21:19:31.856Z,13.93
2023-05-08T21:22:04.983Z,17.20
2023-05-08T21:24:38.959Z,14.77
2023-05-08T21:27:08.647Z,13.00
2023-05-08T21:29:38.728Z,13.63
2023-05-08T21:32:10.425Z,13.30
2023-05-08T21:34:39.653Z,15.57
2023-05-08T21:37:07.989Z,13.90
2023-05-08T21:39:39.171Z,13.50
2023-05-08T21:42:11.688Z,14.40
2023-05-08T21:44:43.903Z,15.35
2023-05-08T21:47:20.232Z,17.98
2023-05-08T21:49:48.612Z,11.65
2023-05-08T21:52:22.121Z,12.27
2023-05-08T21:54:50.249Z,16.05
2023-05-08T21:57:21.998Z,15.98
2023-05-08T21:59:51.663Z,16.75
2023-05-08T22:02:21.287Z,22.77
2023-05-08T22:04:51.590Z,25.73
2023-05-08T22:07:21.140Z,35.60
2023-05-08T22:09:49.120Z,39.95
2023-05-08T22:12:19.928Z,37.03
2023-05-08T22:14:50.962Z,47.17
2023-05-08T22:17:20.486Z,45.53
2023-05-08T22:19:48.852Z,53.25
2023-05-08T22:22:17.582Z,50.72
2023-05-08T22:24:46.289Z,45.63
2023-05-08T22:27:14.838Z,55.67
2023-05-08T22:29:46.109Z,56.22
2023-05-08T22:32:15.223Z,53.65
2023-05-08T22:34:46.791Z,56.95
2023-05-08T22:37:16.390Z,63.22
2023-05-08T22:39:48.352Z,62.35
2023-05-08T22:42:17.327Z,60.22
2023-05-08T22:44:45.544Z,63.75
2023-05-08T22:47:14.142Z,66.03
2023-05-08T22:49:47.974Z,68.18
2023-05-08T22:52:17.038Z,74.55
2023-05-08T22:54:50.069Z,71.03
2023-05-08T22:57:19.380Z,72.70
2023-05-08T22:59:47.800Z,72.82
2023-05-08T23:02:16.404Z,75.05
2023-05-08T23:04:46.384Z,71.82
2023-05-08T23:07:16.816Z,76.20
2023-05-08T23:09:48.204Z,81.00
2023-05-08T23:12:16.601Z,78.60
2023-05-08T23:14:44.894Z,79.38
2023-05-08T23:17:16.647Z,79.10
2023-05-08T23:19:47.138Z,79.72
2023-05-08T23:22:15.353Z,80.93
2023-05-08T23:24:44.762Z,79.38
2023-05-08T23:27:14.213Z,78.60
2023-05-08T23:29:43.630Z,75.60
2023-05-08T23:32:13.631Z,82.60
2023-05-08T23:34:43.566Z,79.45
2023-05-08T23:37:13.932Z,82.00
2023-05-08T23:39:41.996Z,79.78
2023-05-08T23:42:10.626Z,75.10
2023-05-08T23:44:38.815Z,80.50
2023-05-08T23:47:07.345Z,83.32
2023-05-08T23:49:36.445Z,92.90
2023-05-08T23:52:04.829Z,77.80
2023-05-08T23:54:43.670Z,79.57
2023-05-08T23:57:12.308Z,77.47
2023-05-08T23:59:42.866Z,82.85
